Time;durP1;ratioP1;P1;durP2;ratioP2;P2;SDS_P1;SDS_P2;PMS_P1;PMS_P2;Temp;Humidity;BMP_temperature;BMP_pressure;BME280_temperature;BME280_humidity;BME280_pressure;Samples;Min_cycle;Max_cycle;Signal;HPM_P1;HPM_P2
2021/03/13 00:01:39;;;;;;;2.60;1.03;;;6.70;99.90;;;;;;5012593;28;20662;-49
2021/03/13 00:04:06;;;;;;;2.60;1.43;;;6.70;99.90;;;;;;5000243;28;20454;-49
2021/03/13 00:06:32;;;;;;;2.20;1.40;;;6.80;99.90;;;;;;5012358;28;20446;-49
2021/03/13 00:08:59;;;;;;;3.63;1.67;;;6.70;99.90;;;;;;5012644;28;20466;-49
2021/03/13 00:11:26;;;;;;;3.23;1.23;;;6.60;99.90;;;;;;5035627;22;20515;-50
2021/03/13 00:13:52;;;;;;;1.80;1.23;;;6.50;99.90;;;;;;5012727;28;20514;-51
2021/03/13 00:16:19;;;;;;;3.53;1.20;;;6.60;99.90;;;;;;5012348;28;20481;-51
2021/03/13 00:18:45;;;;;;;1.27;0.93;;;6.90;99.90;;;;;;5013983;28;20446;-50
2021/03/13 00:21:12;;;;;;;1.57;1.10;;;7.00;99.90;;;;;;5013986;28;20521;-50
2021/03/13 00:23:38;;;;;;;1.47;1.20;;;7.10;99.90;;;;;;5025286;28;20476;-51
2021/03/13 00:26:05;;;;;;;1.57;1.20;;;7.10;99.90;;;;;;5025690;28;20460;-51
2021/03/13 00:28:32;;;;;;;1.57;1.30;;;7.20;99.90;;;;;;5024717;28;20481;-50
2021/03/13 00:30:59;;;;;;;2.70;1.40;;;7.30;99.90;;;;;;5024851;28;21016;-51
2021/03/13 00:33:27;;;;;;;1.63;1.30;;;7.30;99.90;;;;;;5024598;28;20880;-52
2021/03/13 00:35:54;;;;;;;1.30;1.20;;;7.20;99.90;;;;;;5023822;28;20481;-51
2021/03/13 00:38:22;;;;;;;1.30;1.20;;;7.10;99.90;;;;;;5023588;28;20452;-50
2021/03/13 00:40:49;;;;;;;1.97;1.50;;;7.40;99.90;;;;;;5013643;28;20480;-51
2021/03/13 00:43:16;;;;;;;1.40;1.03;;;7.30;99.90;;;;;;5011942;28;20460;-50
2021/03/13 00:45:44;;;;;;;2.40;1.33;;;7.10;99.90;;;;;;5011895;28;21083;-51
2021/03/13 00:48:11;;;;;;;1.83;1.17;;;7.00;99.90;;;;;;5012148;28;20452;-51
2021/03/13 00:50:40;;;;;;;1.57;1.10;;;7.30;99.90;;;;;;5006712;28;21045;-51
2021/03/13 00:53:07;;;;;;;4.60;1.40;;;7.40;99.90;;;;;;4999372;28;20453;-50
2021/03/13 00:55:34;;;;;;;1.80;1.40;;;7.60;99.90;;;;;;5011492;28;20512;-51
2021/03/13 00:58:01;;;;;;;1.53;1.20;;;7.60;99.90;;;;;;5012028;28;21049;-50
2021/03/13 01:00:29;;;;;;;2.17;1.00;;;7.60;99.90;;;;;;5008453;28;20470;-50
2021/03/13 01:02:56;;;;;;;1.60;1.40;;;7.40;99.90;;;;;;4992554;28;20544;-51
2021/03/13 01:05:23;;;;;;;1.50;1.27;;;7.50;99.90;;;;;;4997102;28;20457;-51
2021/03/13 01:07:49;;;;;;;2.10;1.07;;;7.40;99.90;;;;;;5011653;28;20443;-51
2021/03/13 01:10:20;;;;;;;2.10;1.00;;;7.40;99.90;;;;;;5009797;28;20477;-50
2021/03/13 01:12:47;;;;;;;2.20;1.00;;;7.50;99.90;;;;;;5008263;28;20449;-50
2021/03/13 01:15:16;;;;;;;4.03;1.33;;;7.60;99.90;;;;;;5011310;28;20472;-51
2021/03/13 01:17:43;;;;;;;3.37;1.20;;;7.50;99.90;;;;;;5011604;28;20485;-51
2021/03/13 01:20:13;;;;;;;1.50;1.10;;;7.40;99.90;;;;;;5010788;28;20473;-50
2021/03/13 01:22:40;;;;;;;2.30;0.90;;;7.40;99.90;;;;;;5005645;28;20464;-51
2021/03/13 01:25:07;;;;;;;1.43;0.90;;;7.50;99.90;;;;;;5010683;28;20473;-51
2021/03/13 01:27:34;;;;;;;1.77;1.00;;;7.50;99.90;;;;;;5011485;28;20452;-52
2021/03/13 01:30:01;;;;;;;1.40;1.07;;;7.40;99.90;;;;;;5009559;28;20470;-51
2021/03/13 01:32:27;;;;;;;2.07;0.90;;;7.10;99.90;;;;;;5011541;28;20449;-50
2021/03/13 01:34:54;;;;;;;1.63;1.00;;;7.10;99.90;;;;;;5010812;28;20536;-50
2021/03/13 01:37:22;;;;;;;1.10;1.00;;;7.30;99.90;;;;;;5010784;28;20484;-51
2021/03/13 01:39:49;;;;;;;2.80;1.20;;;7.10;99.90;;;;;;5009791;28;20455;-51
2021/03/13 01:42:15;;;;;;;2.03;1.20;;;7.00;99.90;;;;;;5010333;28;20453;-50
2021/03/13 01:44:42;;;;;;;2.43;1.00;;;7.00;99.90;;;;;;5011215;28;20454;-50
2021/03/13 01:47:15;;;;;;;1.47;1.10;;;7.10;99.90;;;;;;5011155;28;20457;-50
2021/03/13 01:49:43;;;;;;;2.87;1.30;;;7.20;99.90;;;;;;5010449;28;20456;-51
2021/03/13 01:52:11;;;;;;;2.13;1.00;;;7.20;99.90;;;;;;5011029;28;20453;-51
2021/03/13 01:54:38;;;;;;;1.77;1.10;;;7.30;99.90;;;;;;5011285;28;20887;-51
2021/03/13 01:57:06;;;;;;;2.80;1.07;;;7.30;99.90;;;;;;5010486;28;20489;-50
2021/03/13 01:59:33;;;;;;;3.03;1.10;;;7.20;99.90;;;;;;5010776;28;20469;-51
2021/03/13 02:01:59;;;;;;;1.20;1.07;;;7.10;99.90;;;;;;5010927;28;20473;-51
2021/03/13 02:04:26;;;;;;;1.17;1.00;;;7.10;99.90;;;;;;5010667;28;20454;-50
2021/03/13 02:06:58;;;;;;;5.10;1.40;;;7.30;99.90;;;;;;5010108;28;20450;-51
2021/03/13 02:09:29;;;;;;;1.93;1.30;;;7.20;99.90;;;;;;4992990;28;20459;-50
2021/03/13 02:12:07;;;;;;;1.40;1.30;;;7.20;99.90;;;;;;5008520;28;20480;-51
2021/03/13 02:14:44;;;;;;;3.00;1.30;;;7.20;99.90;;;;;;5010615;28;20452;-51
2021/03/13 02:17:18;;;;;;;1.20;1.10;;;7.20;99.90;;;;;;5005747;28;20889;-50
2021/03/13 02:20:02;;;;;;;1.07;0.90;;;7.00;99.90;;;;;;4995438;28;20886;-50
2021/03/13 02:22:33;;;;;;;1.23;1.00;;;7.00;99.90;;;;;;5008374;28;20445;-50
2021/03/13 02:25:03;;;;;;;1.30;1.00;;;7.20;99.90;;;;;;5010530;28;20461;-51
2021/03/13 02:27:32;;;;;;;1.23;1.03;;;7.00;99.90;;;;;;5000763;28;20457;-51
2021/03/13 02:30:02;;;;;;;1.77;0.80;;;6.90;99.90;;;;;;5010259;28;20525;-50
2021/03/13 02:32:35;;;;;;;1.73;0.90;;;7.10;99.90;;;;;;5010500;28;20455;-51
2021/03/13 02:35:06;;;;;;;1.20;1.00;;;7.10;99.90;;;;;;5010212;28;20454;-51
2021/03/13 02:37:39;;;;;;;1.67;1.03;;;7.10;99.90;;;;;;4994591;28;20486;-51
2021/03/13 02:40:08;;;;;;;5.40;1.43;;;7.20;99.90;;;;;;5010638;28;20545;-51
2021/03/13 02:42:43;;;;;;;1.10;1.00;;;7.20;99.90;;;;;;5010526;28;20454;-51
2021/03/13 02:45:12;;;;;;;2.53;2.33;;;7.30;99.90;;;;;;5010497;28;20875;-51
2021/03/13 02:47:41;;;;;;;1.77;1.10;;;7.40;99.90;;;;;;5009378;28;20445;-51
2021/03/13 02:50:09;;;;;;;1.37;1.20;;;7.20;99.90;;;;;;5009907;28;20480;-51
2021/03/13 02:52:37;;;;;;;2.50;1.53;;;7.20;99.90;;;;;;5009484;28;20461;-51
2021/03/13 02:55:05;;;;;;;1.70;1.40;;;7.10;99.90;;;;;;5014373;28;20535;-50
2021/03/13 02:57:32;;;;;;;1.93;1.10;;;7.00;99.90;;;;;;5006092;28;20484;-51
2021/03/13 03:00:00;;;;;;;2.13;0.90;;;6.90;99.90;;;;;;5014102;28;20470;-51
2021/03/13 03:02:28;;;;;;;3.27;1.13;;;7.10;99.90;;;;;;5014131;28;21021;-51
2021/03/13 03:04:55;;;;;;;2.43;1.00;;;7.10;99.90;;;;;;5012226;28;20457;-51
2021/03/13 03:07:27;;;;;;;2.73;1.07;;;7.10;99.90;;;;;;5011447;28;20453;-51
2021/03/13 03:09:54;;;;;;;4.30;1.30;;;7.10;99.90;;;;;;4997660;28;20965;-51
2021/03/13 03:12:22;;;;;;;3.37;1.63;;;7.10;99.90;;;;;;4995564;28;20446;-50
2021/03/13 03:14:49;;;;;;;2.30;1.40;;;7.10;99.90;;;;;;5001112;28;20880;-51
2021/03/13 03:17:16;;;;;;;1.23;1.10;;;7.10;99.90;;;;;;4997789;28;20478;-50
2021/03/13 03:19:45;;;;;;;1.23;0.93;;;6.90;99.90;;;;;;4994315;28;20461;-51
2021/03/13 03:22:12;;;;;;;1.70;1.10;;;6.90;99.90;;;;;;5010320;28;20457;-50
2021/03/13 03:24:40;;;;;;;2.73;0.90;;;6.90;99.90;;;;;;5011477;28;20447;-51
2021/03/13 03:27:07;;;;;;;2.13;1.10;;;6.90;99.90;;;;;;5006602;28;20442;-51
2021/03/13 03:29:34;;;;;;;1.63;1.00;;;7.00;99.90;;;;;;5013551;28;20449;-50
2021/03/13 03:32:00;;;;;;;2.00;1.07;;;6.90;99.90;;;;;;5013111;28;20484;-50
2021/03/13 03:34:26;;;;;;;2.20;1.27;;;6.50;99.90;;;;;;5013384;28;20943;-52
2021/03/13 03:36:54;;;;;;;1.63;1.20;;;6.30;99.90;;;;;;5010596;28;20484;-51
2021/03/13 03:39:21;;;;;;;3.00;1.20;;;6.30;99.90;;;;;;5012967;28;20450;-51
2021/03/13 03:41:52;;;;;;;1.47;1.10;;;6.20;99.90;;;;;;5005007;28;21168;-50
2021/03/13 03:44:24;;;;;;;2.87;1.10;;;6.30;99.90;;;;;;5004160;28;20458;-51
2021/03/13 03:46:52;;;;;;;1.73;1.20;;;6.30;99.90;;;;;;4995166;28;20454;-51
2021/03/13 03:49:21;;;;;;;1.77;1.10;;;6.30;99.90;;;;;;4993856;28;20451;-51
2021/03/13 03:51:48;;;;;;;6.20;1.17;;;6.10;99.90;;;;;;5005289;28;20465;-50
2021/03/13 03:54:18;;;;;;;3.43;1.10;;;6.10;99.90;;;;;;5012956;28;20463;-51
2021/03/13 03:56:46;;;;;;;2.40;1.30;;;6.00;99.90;;;;;;5003808;28;20481;-51
2021/03/13 03:59:19;;;;;;;1.00;0.90;;;6.00;99.90;;;;;;5002940;28;20459;-51
2021/03/13 04:01:48;;;;;;;1.43;0.90;;;5.90;99.90;;;;;;4993460;28;20474;-51
2021/03/13 04:04:18;;;;;;;1.63;1.20;;;6.00;99.90;;;;;;4992677;28;20451;-50
2021/03/13 04:06:47;;;;;;;1.87;1.10;;;6.00;99.90;;;;;;4997508;28;20446;-51
2021/03/13 04:09:15;;;;;;;1.20;1.00;;;6.10;99.90;;;;;;4993377;28;20458;-51
2021/03/13 04:11:42;;;;;;;1.60;0.80;;;6.00;99.90;;;;;;5000502;28;20915;-51
2021/03/13 04:14:09;;;;;;;2.70;0.90;;;5.80;99.90;;;;;;4995604;28;20459;-51
2021/03/13 04:16:36;;;;;;;2.30;1.23;;;5.90;99.90;;;;;;4999440;28;20474;-50
2021/03/13 04:19:04;;;;;;;1.63;1.00;;;5.90;99.90;;;;;;5011989;28;20825;-50
2021/03/13 04:21:32;;;;;;;2.33;1.00;;;5.80;99.90;;;;;;5012444;28;20470;-51
2021/03/13 04:23:59;;;;;;;2.20;1.00;;;5.70;99.90;;;;;;4998771;28;20450;-50
2021/03/13 04:26:27;;;;;;;1.10;1.00;;;5.70;99.90;;;;;;4996846;28;20944;-51
2021/03/13 04:28:54;;;;;;;1.03;0.93;;;5.90;99.90;;;;;;4993198;28;20512;-50
2021/03/13 04:31:26;;;;;;;1.10;1.00;;;6.00;99.90;;;;;;4993058;28;20474;-49
2021/03/13 04:33:54;;;;;;;2.30;1.10;;;5.90;99.90;;;;;;4993113;28;20824;-51
2021/03/13 04:36:21;;;;;;;2.33;1.00;;;5.90;99.90;;;;;;4994138;28;20548;-50
2021/03/13 04:38:49;;;;;;;1.80;1.30;;;6.10;99.90;;;;;;4992842;28;20803;-50
2021/03/13 04:41:16;;;;;;;1.00;1.00;;;6.20;99.90;;;;;;4992658;28;20477;-50
2021/03/13 04:43:43;;;;;;;1.23;1.13;;;6.30;99.90;;;;;;4992619;28;20500;-51
2021/03/13 04:46:11;;;;;;;2.43;1.63;;;5.90;99.90;;;;;;5010331;28;20456;-51
2021/03/13 04:48:37;;;;;;;1.43;1.00;;;5.80;99.90;;;;;;5028341;28;20472;-50
2021/03/13 04:51:07;;;;;;;1.20;0.93;;;5.90;99.90;;;;;;5008555;28;21028;-50
2021/03/13 04:53:34;;;;;;;1.70;1.50;;;5.80;99.90;;;;;;5009729;28;20452;-51
2021/03/13 04:56:01;;;;;;;1.73;1.27;;;6.00;99.90;;;;;;5006805;28;20451;-51
2021/03/13 04:58:28;;;;;;;3.57;1.07;;;6.10;99.90;;;;;;5012455;28;20461;-50
2021/03/13 05:00:56;;;;;;;1.63;1.00;;;5.90;99.90;;;;;;5011798;28;20477;-50
2021/03/13 05:03:23;;;;;;;2.03;1.10;;;6.10;99.90;;;;;;5011941;28;20923;-50
2021/03/13 05:05:49;;;;;;;1.47;1.00;;;6.10;99.90;;;;;;5006020;28;20460;-51
2021/03/13 05:08:16;;;;;;;1.87;1.20;;;5.90;99.90;;;;;;5003940;28;20462;-50
2021/03/13 05:10:42;;;;;;;1.40;1.10;;;5.60;99.90;;;;;;5010612;28;20485;-50
2021/03/13 05:13:08;;;;;;;1.33;1.00;;;5.70;99.90;;;;;;5011270;28;20461;-50
2021/03/13 05:15:35;;;;;;;3.20;1.40;;;5.60;99.90;;;;;;5010740;28;20806;-50
2021/03/13 05:18:03;;;;;;;1.53;0.80;;;5.70;99.90;;;;;;5011042;28;20504;-50
2021/03/13 05:20:29;;;;;;;1.23;1.00;;;5.80;99.90;;;;;;5011536;28;20532;-51
2021/03/13 05:22:56;;;;;;;2.27;1.20;;;5.80;99.90;;;;;;5010892;28;20465;-51
2021/03/13 05:25:23;;;;;;;1.33;1.10;;;5.70;99.90;;;;;;5012125;28;20900;-50
2021/03/13 05:27:49;;;;;;;1.77;0.93;;;5.60;99.90;;;;;;5010758;28;20453;-50
2021/03/13 05:30:17;;;;;;;1.00;0.90;;;5.60;99.90;;;;;;5011375;28;20488;-50
2021/03/13 05:32:44;;;;;;;2.90;1.43;;;5.70;99.90;;;;;;5011298;28;20958;-50
2021/03/13 05:35:12;;;;;;;1.00;0.80;;;5.50;99.90;;;;;;5010611;28;20455;-50
2021/03/13 05:37:40;;;;;;;1.60;0.90;;;5.40;99.90;;;;;;5011050;28;20485;-51
2021/03/13 05:40:09;;;;;;;1.83;1.20;;;5.30;99.90;;;;;;5011245;28;20856;-51
2021/03/13 05:42:37;;;;;;;1.43;1.30;;;5.30;99.90;;;;;;5010953;28;20450;-50
2021/03/13 05:45:09;;;;;;;2.30;1.00;;;5.40;99.90;;;;;;5010939;28;20467;-50
2021/03/13 05:47:39;;;;;;;4.60;1.40;;;5.20;99.90;;;;;;5013097;28;20472;-51
2021/03/13 05:50:07;;;;;;;1.23;1.10;;;5.30;99.90;;;;;;5011506;28;20549;-51
2021/03/13 05:52:37;;;;;;;1.67;1.10;;;5.30;99.90;;;;;;5010820;28;20463;-50
2021/03/13 05:55:05;;;;;;;3.33;1.00;;;5.20;99.90;;;;;;5010358;28;20457;-51
2021/03/13 05:57:32;;;;;;;2.80;1.10;;;5.40;99.90;;;;;;5010742;28;20484;-50
2021/03/13 05:59:58;;;;;;;2.80;1.20;;;5.40;99.90;;;;;;5010400;28;20449;-50
2021/03/13 06:02:25;;;;;;;1.10;1.00;;;5.50;99.90;;;;;;5015401;28;20461;-50
2021/03/13 06:04:52;;;;;;;1.10;0.90;;;5.80;99.90;;;;;;5010922;28;20449;-51
2021/03/13 06:07:20;;;;;;;1.77;1.00;;;5.80;99.90;;;;;;5010959;28;20953;-49
2021/03/13 06:09:50;;;;;;;2.30;1.23;;;5.70;99.90;;;;;;5010334;28;20485;-50
2021/03/13 06:12:17;;;;;;;3.37;1.20;;;5.50;99.90;;;;;;5010297;28;20511;-50
2021/03/13 06:14:46;;;;;;;1.77;1.20;;;5.60;99.90;;;;;;5014423;28;20449;-51
2021/03/13 06:17:13;;;;;;;1.43;1.20;;;5.50;99.90;;;;;;5011210;28;20544;-49
2021/03/13 06:19:50;;;;;;;2.23;1.40;;;5.30;99.90;;;;;;5022161;22;20808;-48
2021/03/13 06:22:34;;;;;;;1.17;1.07;;;5.30;99.90;;;;;;5007614;28;20452;-48
2021/03/13 06:25:19;;;;;;;2.27;1.37;;;5.40;99.90;;;;;;5010669;28;20452;-48
2021/03/13 06:27:47;;;;;;;2.10;1.50;;;5.70;99.90;;;;;;5012150;28;20451;-48
2021/03/13 06:30:15;;;;;;;2.70;1.77;;;5.70;99.90;;;;;;5014014;28;20477;-48
2021/03/13 06:32:42;;;;;;;3.13;1.40;;;5.70;99.90;;;;;;5025084;28;20451;-48
2021/03/13 06:35:22;;;;;;;1.63;1.23;;;5.90;99.90;;;;;;5020410;28;20461;-48
2021/03/13 06:37:50;;;;;;;2.10;1.20;;;6.20;99.90;;;;;;5014642;28;20481;-47
2021/03/13 06:40:32;;;;;;;1.60;1.50;;;6.50;99.90;;;;;;5009987;28;20454;-48
2021/03/13 06:43:00;;;;;;;2.70;1.23;;;7.10;99.90;;;;;;5013483;28;20264;-48
2021/03/13 06:45:27;;;;;;;2.87;1.37;;;7.40;99.90;;;;;;5009307;28;20472;-49
2021/03/13 06:47:54;;;;;;;2.50;1.70;;;8.10;99.90;;;;;;5014233;28;20441;-48
2021/03/13 06:50:22;;;;;;;1.93;1.23;;;8.30;99.80;;;;;;5013404;28;20473;-48
2021/03/13 06:52:51;;;;;;;1.17;0.93;;;8.10;99.80;;;;;;5013687;28;20461;-48
2021/03/13 06:55:20;;;;;;;1.27;1.00;;;8.30;98.80;;;;;;5014419;28;20476;-48
2021/03/13 06:57:48;;;;;;;2.30;1.10;;;8.20;99.30;;;;;;5013581;28;20512;-49
2021/03/13 07:00:26;;;;;;;1.10;1.00;;;8.30;99.40;;;;;;5013113;28;20531;-48
2021/03/13 07:03:03;;;;;;;1.93;1.57;;;8.30;99.70;;;;;;5013544;28;20978;-47
2021/03/13 07:05:30;;;;;;;2.20;1.10;;;8.40;99.40;;;;;;5013346;28;20955;-48
2021/03/13 07:07:57;;;;;;;1.97;1.00;;;8.40;99.90;;;;;;5013901;28;20456;-48
2021/03/13 07:10:28;;;;;;;1.97;1.77;;;8.50;99.60;;;;;;5013326;28;20983;-47
2021/03/13 07:12:56;;;;;;;1.20;1.10;;;8.70;99.20;;;;;;5013658;28;20467;-48
2021/03/13 07:15:25;;;;;;;6.40;1.27;;;8.80;97.70;;;;;;5013235;28;20896;-47
2021/03/13 07:17:54;;;;;;;2.00;1.40;;;8.50;98.50;;;;;;5009579;28;20938;-48
2021/03/13 07:20:22;;;;;;;1.10;1.00;;;8.60;98.80;;;;;;5012710;28;20493;-48
2021/03/13 07:22:52;;;;;;;2.90;1.20;;;8.80;98.20;;;;;;5013410;28;20512;-48
2021/03/13 07:25:21;;;;;;;1.70;1.40;;;9.00;98.10;;;;;;5007566;28;20543;-48
2021/03/13 07:27:52;;;;;;;2.07;1.20;;;9.40;98.00;;;;;;5012273;28;20452;-48
2021/03/13 07:30:21;;;;;;;1.90;1.43;;;9.70;98.20;;;;;;5012766;28;20472;-48
2021/03/13 07:32:52;;;;;;;1.30;1.20;;;9.70;97.70;;;;;;5013393;28;20441;-48
2021/03/13 07:35:22;;;;;;;2.03;1.20;;;9.70;97.70;;;;;;5013066;28;20440;-48
2021/03/13 07:37:53;;;;;;;1.83;1.10;;;10.10;96.30;;;;;;5012222;28;21102;-48
2021/03/13 07:40:21;;;;;;;0.90;0.90;;;10.20;95.40;;;;;;5011286;28;20481;-47
2021/03/13 07:42:49;;;;;;;1.70;1.13;;;9.70;95.90;;;;;;5010715;28;20468;-48
2021/03/13 07:45:18;;;;;;;1.90;0.90;;;9.80;97.20;;;;;;5001197;28;20450;-47
2021/03/13 07:47:45;;;;;;;1.10;1.00;;;9.90;96.80;;;;;;5008345;28;20540;-48
2021/03/13 07:50:14;;;;;;;1.40;1.10;;;10.30;95.20;;;;;;5011674;28;20470;-48
2021/03/13 07:52:42;;;;;;;1.27;1.00;;;10.50;95.80;;;;;;5012103;28;20465;-48
2021/03/13 07:55:11;;;;;;;1.30;1.00;;;10.50;94.70;;;;;;5011930;28;20978;-49
2021/03/13 07:57:39;;;;;;;1.07;0.97;;;10.70;94.60;;;;;;5012450;28;20481;-48
2021/03/13 08:00:07;;;;;;;1.60;1.30;;;10.80;95.00;;;;;;4993275;28;20474;-48
2021/03/13 08:02:41;;;;;;;1.10;1.00;;;11.10;94.70;;;;;;5004780;28;20457;-48
2021/03/13 08:05:12;;;;;;;3.23;1.10;;;11.50;93.20;;;;;;5008555;28;20456;-48
2021/03/13 08:07:57;;;;;;;1.67;1.00;;;11.80;93.30;;;;;;5005889;28;20882;-48
2021/03/13 08:10:43;;;;;;;1.70;0.90;;;12.10;93.20;;;;;;5007932;28;20476;-48
2021/03/13 08:13:11;;;;;;;1.30;0.90;;;12.20;92.30;;;;;;5007982;28;20449;-48
2021/03/13 08:15:45;;;;;;;5.27;1.30;;;12.20;91.90;;;;;;4993066;28;20458;-48
2021/03/13 08:18:41;;;;;;;2.60;1.00;;;12.10;92.00;;;;;;4992706;28;20860;-48
2021/03/13 08:21:43;;;;;;;0.90;0.80;;;12.10;91.10;;;;;;5004516;28;20445;-48
2021/03/13 08:24:13;;;;;;;1.20;0.97;;;12.00;92.30;;;;;;5012067;28;20579;-48
2021/03/13 08:27:03;;;;;;;1.10;1.00;;;12.20;92.20;;;;;;4996665;28;20521;-48
2021/03/13 08:29:55;;;;;;;1.50;0.93;;;12.50;92.30;;;;;;5003916;28;20558;-48
2021/03/13 08:33:04;;;;;;;1.27;0.73;;;12.40;91.80;;;;;;5012130;28;20449;-47
2021/03/13 08:35:52;;;;;;;1.10;0.90;;;12.50;92.30;;;;;;5011699;28;20556;-48
2021/03/13 08:38:21;;;;;;;1.50;0.97;;;12.20;92.20;;;;;;5009525;28;20581;-48
2021/03/13 08:40:53;;;;;;;0.93;0.83;;;12.50;92.30;;;;;;4992571;28;20530;-49
2021/03/13 08:43:37;;;;;;;2.00;0.90;;;13.00;90.60;;;;;;4992181;28;20971;-48
2021/03/13 08:46:05;;;;;;;1.50;1.00;;;12.90;91.00;;;;;;5002743;28;20449;-49
2021/03/13 08:48:57;;;;;;;1.53;0.83;;;13.20;90.70;;;;;;5011271;28;20473;-49
2021/03/13 08:51:23;;;;;;;2.40;1.20;;;13.20;91.60;;;;;;4992058;28;20458;-48
2021/03/13 08:53:52;;;;;;;1.43;1.20;;;13.70;91.40;;;;;;4996287;28;20449;-49
2021/03/13 08:56:42;;;;;;;1.43;1.00;;;14.20;91.90;;;;;;4993607;28;20484;-52
2021/03/13 08:59:15;;;;;;;1.60;1.03;;;14.20;88.60;;;;;;4999812;28;20527;-51
2021/03/13 09:01:59;;;;;;;1.50;1.00;;;14.40;88.70;;;;;;5012100;28;20446;-49
2021/03/13 09:04:26;;;;;;;1.00;0.90;;;14.80;88.40;;;;;;5011624;28;20766;-48
2021/03/13 09:06:52;;;;;;;1.40;1.10;;;15.30;86.90;;;;;;5011542;28;20836;-48
2021/03/13 09:09:21;;;;;;;2.10;1.00;;;15.60;88.10;;;;;;5002035;28;20497;-49
2021/03/13 09:11:56;;;;;;;0.80;0.80;;;15.70;85.60;;;;;;4991946;28;20850;-49
2021/03/13 09:14:22;;;;;;;0.90;0.90;;;15.40;83.30;;;;;;4991427;28;20457;-49
2021/03/13 09:16:49;;;;;;;1.30;0.97;;;15.20;78.20;;;;;;5008180;28;20920;-49
2021/03/13 09:19:19;;;;;;;1.10;0.87;;;15.10;82.10;;;;;;5002219;28;20865;-49
2021/03/13 09:21:48;;;;;;;1.20;0.90;;;14.90;81.80;;;;;;4999363;28;20453;-48
2021/03/13 09:24:21;;;;;;;1.10;0.80;;;14.10;80.20;;;;;;5010917;28;20498;-47
2021/03/13 09:26:49;;;;;;;2.80;0.90;;;14.10;81.40;;;;;;5010971;28;20445;-49
2021/03/13 09:29:16;;;;;;;1.53;0.83;;;14.30;83.10;;;;;;5011302;28;20482;-49
2021/03/13 09:31:42;;;;;;;0.90;0.80;;;14.80;80.10;;;;;;5011475;28;20456;-49
2021/03/13 09:34:19;;;;;;;0.70;0.70;;;14.90;76.60;;;;;;5011648;28;20936;-49
2021/03/13 09:36:46;;;;;;;0.80;0.70;;;15.00;76.60;;;;;;5008130;28;20540;-49
2021/03/13 09:39:26;;;;;;;1.20;0.90;;;15.10;76.50;;;;;;5002512;28;20902;-49
2021/03/13 09:42:16;;;;;;;1.20;0.80;;;15.80;80.40;;;;;;5005218;28;20813;-49
2021/03/13 09:44:46;;;;;;;2.00;0.90;;;15.70;77.40;;;;;;4989785;28;20453;-49
2021/03/13 09:47:19;;;;;;;1.20;1.00;;;15.90;76.90;;;;;;5006295;28;20449;-49
2021/03/13 09:49:47;;;;;;;1.07;0.80;;;16.30;74.90;;;;;;5010194;28;20528;-49
2021/03/13 09:52:14;;;;;;;1.00;0.90;;;16.90;71.90;;;;;;5011230;28;20499;-49
2021/03/13 09:54:42;;;;;;;1.23;0.93;;;17.40;72.90;;;;;;5010617;28;20453;-49
2021/03/13 09:57:11;;;;;;;5.20;1.40;;;17.50;70.50;;;;;;5010454;28;20483;-49
2021/03/13 09:59:38;;;;;;;1.53;1.00;;;17.50;74.40;;;;;;5011256;28;20480;-49
2021/03/13 10:02:05;;;;;;;1.80;0.90;;;16.80;70.40;;;;;;5010243;28;20454;-49
2021/03/13 10:04:32;;;;;;;3.70;1.13;;;16.60;79.20;;;;;;5010701;28;20453;-49
2021/03/13 10:06:59;;;;;;;3.50;1.43;;;16.80;79.00;;;;;;5008029;28;20449;-49
2021/03/13 10:09:25;;;;;;;3.83;1.30;;;16.70;78.70;;;;;;4995341;28;20997;-48
2021/03/13 10:11:53;;;;;;;5.37;1.10;;;15.90;81.70;;;;;;5011132;28;20450;-48
2021/03/13 10:14:22;;;;;;;1.03;0.90;;;16.20;78.20;;;;;;5010677;28;20452;-48
2021/03/13 10:16:58;;;;;;;4.03;0.90;;;16.50;74.10;;;;;;5010094;28;20477;-49
2021/03/13 10:19:38;;;;;;;5.53;0.70;;;16.60;78.10;;;;;;5010721;28;20507;-49
2021/03/13 10:22:14;;;;;;;2.93;0.93;;;17.10;77.40;;;;;;5010833;28;20527;-49
2021/03/13 10:24:50;;;;;;;4.80;1.00;;;17.40;78.60;;;;;;5010886;28;20946;-48
2021/03/13 10:27:26;;;;;;;2.77;0.70;;;16.90;80.30;;;;;;5006026;28;20453;-50
2021/03/13 10:29:54;;;;;;;10.00;1.30;;;16.60;80.30;;;;;;5010372;28;20469;-48
2021/03/13 10:32:29;;;;;;;6.07;1.20;;;16.70;81.10;;;;;;5010690;28;20445;-48
2021/03/13 10:35:06;;;;;;;3.13;1.00;;;16.00;79.30;;;;;;5010477;28;20455;-49
2021/03/13 10:37:38;;;;;;;1.03;0.70;;;15.80;79.70;;;;;;5008631;28;20944;-48
2021/03/13 10:40:05;;;;;;;6.00;0.90;;;15.70;80.80;;;;;;5010173;28;20470;-48
2021/03/13 10:42:35;;;;;;;1.87;0.80;;;16.30;82.80;;;;;;5010526;28;20445;-48
2021/03/13 10:45:16;;;;;;;1.77;0.80;;;16.50;78.00;;;;;;5009939;28;20449;-48
2021/03/13 10:47:44;;;;;;;5.83;2.80;;;16.90;79.20;;;;;;4990961;28;20449;-48
2021/03/13 10:50:12;;;;;;;2.13;0.83;;;16.70;84.90;;;;;;4993732;28;20473;-48
2021/03/13 10:52:38;;;;;;;1.13;0.60;;;17.10;79.30;;;;;;5010354;28;20450;-49
2021/03/13 10:55:07;;;;;;;1.30;0.80;;;17.20;82.20;;;;;;5009850;28;20458;-48
2021/03/13 10:57:35;;;;;;;7.17;2.97;;;17.50;76.40;;;;;;5010160;28;20990;-48
2021/03/13 11:00:02;;;;;;;1.57;0.70;;;17.50;78.60;;;;;;5010514;28;20473;-48
2021/03/13 11:02:28;;;;;;;3.50;1.00;;;17.30;76.20;;;;;;5010589;28;21005;-49
2021/03/13 11:04:54;;;;;;;2.47;0.70;;;17.40;75.40;;;;;;5009506;28;20460;-48
2021/03/13 11:07:21;;;;;;;0.73;0.70;;;17.70;74.50;;;;;;5009651;28;20442;-48
2021/03/13 11:09:48;;;;;;;2.13;0.80;;;17.60;79.30;;;;;;5009892;28;20476;-48
2021/03/13 11:12:15;;;;;;;3.33;0.73;;;17.40;76.50;;;;;;5011099;28;20453;-48
2021/03/13 11:14:42;;;;;;;1.80;0.90;;;17.40;78.10;;;;;;5013935;28;20449;-48
2021/03/13 11:17:08;;;;;;;1.63;0.67;;;16.90;68.40;;;;;;4998305;28;20486;-48
2021/03/13 11:19:36;;;;;;;1.90;0.73;;;16.90;68.30;;;;;;5007255;28;20856;-48
2021/03/13 11:22:10;;;;;;;1.83;0.80;;;16.90;78.20;;;;;;5013893;28;20457;-48
2021/03/13 11:24:37;;;;;;;1.30;0.80;;;17.00;72.60;;;;;;5013493;28;20480;-48
2021/03/13 11:27:04;;;;;;;1.93;1.00;;;16.50;80.40;;;;;;5013036;28;20450;-48
2021/03/13 11:29:30;;;;;;;3.63;1.00;;;16.40;78.70;;;;;;5004064;28;20478;-48
2021/03/13 11:31:58;;;;;;;0.97;0.87;;;15.80;79.00;;;;;;5011077;28;20457;-48
2021/03/13 11:34:24;;;;;;;1.60;0.83;;;15.80;81.10;;;;;;5012806;28;20460;-48
2021/03/13 11:36:51;;;;;;;2.03;0.90;;;15.70;83.30;;;;;;5004285;28;20472;-48
2021/03/13 11:39:19;;;;;;;1.57;0.80;;;15.50;78.80;;;;;;5013499;28;20529;-48
2021/03/13 11:41:45;;;;;;;0.80;0.60;;;15.50;79.40;;;;;;5009810;28;20869;-51
2021/03/13 11:44:14;;;;;;;1.23;0.83;;;15.40;82.30;;;;;;4993713;28;20446;-48
2021/03/13 11:46:40;;;;;;;1.03;0.77;;;15.40;83.00;;;;;;5008198;28;20449;-48
2021/03/13 11:49:07;;;;;;;1.17;0.83;;;15.30;84.10;;;;;;5013044;28;20465;-48
2021/03/13 11:51:34;;;;;;;3.43;0.97;;;15.40;83.30;;;;;;5012770;28;20978;-48
2021/03/13 11:54:00;;;;;;;3.53;0.80;;;15.60;88.00;;;;;;5013388;28;20825;-48
2021/03/13 11:56:27;;;;;;;2.17;0.80;;;15.80;83.50;;;;;;5012949;28;20831;-48
2021/03/13 11:58:53;;;;;;;1.80;0.80;;;15.90;85.20;;;;;;5012745;28;21052;-48
2021/03/13 12:01:20;;;;;;;1.20;0.90;;;15.90;81.10;;;;;;5010967;28;20450;-48
2021/03/13 12:03:47;;;;;;;0.90;0.70;;;16.10;83.80;;;;;;5011568;28;20453;-48
2021/03/13 12:06:14;;;;;;;1.17;0.80;;;16.10;84.00;;;;;;5011475;28;20449;-48
2021/03/13 12:08:40;;;;;;;0.80;0.80;;;15.60;80.90;;;;;;5012223;28;20475;-48
2021/03/13 12:11:07;;;;;;;1.40;0.90;;;15.50;80.20;;;;;;5004623;28;20469;-48
2021/03/13 12:13:33;;;;;;;1.00;0.80;;;15.50;83.20;;;;;;5010718;28;20507;-48
2021/03/13 12:16:00;;;;;;;2.20;0.67;;;15.80;79.80;;;;;;5011619;28;20457;-48
2021/03/13 12:18:26;;;;;;;1.97;0.83;;;16.10;82.70;;;;;;5005176;28;20949;-48
2021/03/13 12:20:53;;;;;;;0.90;0.90;;;16.10;77.70;;;;;;5034341;22;20947;-52
2021/03/13 12:23:20;;;;;;;0.80;0.80;;;16.20;76.60;;;;;;5011679;28;20454;-52
2021/03/13 12:25:47;;;;;;;1.30;0.80;;;16.20;77.70;;;;;;5023494;28;20446;-52
2021/03/13 12:28:13;;;;;;;0.70;0.70;;;16.10;77.30;;;;;;5015090;28;21092;-51
2021/03/13 12:30:40;;;;;;;1.90;0.70;;;16.10;76.40;;;;;;4999768;28;20474;-52
2021/03/13 12:33:06;;;;;;;3.47;0.87;;;16.20;77.90;;;;;;5002498;28;20475;-52
2021/03/13 12:35:33;;;;;;;1.97;0.80;;;16.20;75.00;;;;;;5014070;28;20460;-52
2021/03/13 12:37:59;;;;;;;1.97;0.90;;;16.50;79.60;;;;;;4999717;28;20490;-52
2021/03/13 12:40:27;;;;;;;5.60;1.13;;;16.40;78.10;;;;;;4992331;28;20477;-51
2021/03/13 12:42:53;;;;;;;0.90;0.70;;;16.30;78.50;;;;;;4986264;28;20454;-52
2021/03/13 12:45:20;;;;;;;2.70;0.87;;;16.10;78.30;;;;;;4990257;28;20467;-52
2021/03/13 12:47:48;;;;;;;1.50;0.80;;;16.00;77.10;;;;;;4982907;28;20469;-53
2021/03/13 12:50:15;;;;;;;4.17;1.10;;;15.70;77.20;;;;;;4989347;28;20578;-52
2021/03/13 12:52:41;;;;;;;1.00;0.83;;;15.80;79.80;;;;;;4992542;28;20509;-52
2021/03/13 12:55:09;;;;;;;0.90;0.87;;;15.70;78.90;;;;;;4990834;28;20823;-52
2021/03/13 12:57:36;;;;;;;1.07;0.80;;;15.60;77.00;;;;;;4990910;28;20509;-59
2021/03/13 13:00:04;;;;;;;0.93;0.70;;;15.70;74.30;;;;;;4993425;28;20540;-52
2021/03/13 13:02:31;;;;;;;1.03;0.70;;;15.60;73.80;;;;;;4983561;28;20463;-52
2021/03/13 13:04:57;;;;;;;0.80;0.80;;;15.60;73.60;;;;;;4982180;28;20470;-52